Tucumcari ASC

Jan. 22, 2020, 3:40 p.m.

  • imperial
Air Temperature RH Dewpoint Wind Chill Heat Index Wind Speed Wind Direction Precipitation Solar Radiation Soil Temperature
Date Time Total Total
US/Mountain F % F F F MPH deg. in. MJ/m^2 F
2020-01-21 15:40 36.39 89.6 33.63 30.5 36.39 7.43 202.9 0.0 0.005 40.6
2020-01-21 15:45 36.34 90.1 33.71 29.83 36.34 8.48 166.7 0.0 0.006 40.57
2020-01-21 15:50 36.21 90.2 33.62 28.32 36.21 11.34 170.0 0.0 0.006 40.55
2020-01-21 15:55 36.09 90.2 33.49 30.58 36.09 6.71 171.1 0.0 0.005 40.51
2020-01-21 16:00 36.01 90.8 33.59 32.31 36.01 4.38 199.5 0.0 0.005 40.48
2020-01-21 16:05 36.01 90.8 33.59 29.83 36.01 7.78 192.2 0.0 0.003 40.41
2020-01-21 16:10 35.91 90.4 33.37 31.55 35.91 5.1 192.4 0.0 0.002 40.37
2020-01-21 16:15 35.55 90.7 33.1 31.6 35.55 4.56 191.7 0.0 0.002 40.3
2020-01-21 16:20 35.42 90.7 32.97 30.98 35.42 5.1 190.8 0.0 0.002 40.21
2020-01-21 16:25 35.29 91.1 32.96 30.98 35.29 4.92 186.2 0.0 0.002 40.12
2020-01-21 16:30 35.11 91.5 32.89 29.65 35.11 6.35 210.5 0.0 0.001 39.99
2020-01-21 16:35 35.06 91.7 32.89 29.98 35.06 5.82 222.0 0.0 0.002 39.85
2020-01-21 16:40 35.06 91.7 32.89 30.87 35.06 4.74 208.4 0.0 0.002 39.74
2020-01-21 16:45 35.06 91.8 32.92 29.85 35.06 6.0 199.7 0.0 0.002 39.6
2020-01-21 16:50 35.06 91.7 32.89 27.7 35.06 9.57 167.4 0.0 0.003 39.51
2020-01-21 16:55 34.93 91.8 32.79 29.44 34.93 6.35 173.7 0.0 0.003 39.4
2020-01-21 17:00 34.99 91.4 32.74 29.5 34.99 6.35 171.0 0.0 0.003 39.29
2020-01-21 17:05 34.68 92.0 32.6 27.91 34.68 8.3 180.2 0.0 0.002 39.22
2020-01-21 17:10 34.5 92.7 32.61 27.38 34.5 8.86 154.7 0.0 0.001 39.15
2020-01-21 17:15 34.43 93.0 32.62 28.23 34.43 7.25 171.7 0.0 0.001 39.07
2020-01-21 17:20 34.56 92.8 32.69 28.5 34.56 7.07 141.2 0.0 0.0 39.02
2020-01-21 17:25 34.3 92.8 32.44 27.97 34.3 7.43 127.9 0.0 0.0 38.97
2020-01-21 17:30 34.0 93.2 32.24 28.19 34.0 6.53 133.6 0.0 0.0 38.91
2020-01-21 17:35 33.64 93.6 31.99 27.16 33.64 7.43 130.4 0.0 0.0 38.88
2020-01-21 17:40 33.58 94.1 32.07 26.35 33.58 8.68 164.2 0.0 0.0 38.84
2020-01-21 17:45 33.58 94.3 32.12 26.87 33.58 7.78 146.8 0.0 0.0 38.8
2020-01-21 17:50 33.46 94.4 32.02 26.83 33.46 7.61 135.1 0.0 0.0 38.77
2020-01-21 17:55 33.58 94.4 32.15 26.67 33.58 8.12 129.9 0.0 0.0 38.73
2020-01-21 18:00 33.69 93.9 32.12 26.7 33.69 8.3 142.1 0.0 0.0 38.7
2020-01-21 18:05 34.0 93.7 32.37 27.71 34.0 7.25 147.2 0.0 0.0 38.68
2020-01-21 18:10 33.94 93.8 32.35 28.52 33.94 6.0 164.9 0.0 0.0 38.66
2020-01-21 18:15 34.07 94.1 32.55 28.28 34.07 6.53 164.0 0.0 0.0 38.62
2020-01-21 18:20 34.43 94.0 32.88 26.75 34.43 9.91 169.9 0.0 0.0 38.59
2020-01-21 18:25 34.68 91.8 32.54 26.64 34.68 10.8 175.5 0.0 0.0 38.55
2020-01-21 18:30 34.81 90.2 32.23 26.41 34.81 11.7 190.6 0.0 0.0 38.53
2020-01-21 18:35 34.81 89.6 32.06 28.06 34.81 8.3 186.9 0.0 0.0 38.52
2020-01-21 18:40 34.68 90.1 32.08 26.98 34.68 10.09 184.2 0.0 0.0 38.52
2020-01-21 18:45 34.63 90.7 32.19 28.36 34.63 7.43 185.1 0.0 0.0 38.5
2020-01-21 18:50 34.56 91.0 32.2 29.66 34.56 5.46 168.4 0.0 0.0 38.46
2020-01-21 18:55 34.56 90.8 32.15 28.86 34.56 6.53 174.4 0.0 0.0 38.46
2020-01-21 19:00 34.56 90.8 32.15 29.38 34.56 5.82 169.6 0.0 0.0 38.43
2020-01-21 19:05 34.43 91.0 32.08 27.7 34.43 8.12 160.6 0.0 0.0 38.43
2020-01-21 19:10 34.63 91.1 32.3 27.44 34.63 9.04 182.2 0.0 0.0 38.39
2020-01-21 19:15 34.68 89.8 32.0 29.67 34.68 5.64 133.9 0.0 0.0 38.39
2020-01-21 19:20 34.68 89.4 31.88 25.88 34.68 12.59 179.9 0.0 0.0 38.35
2020-01-21 19:25 34.81 89.3 31.98 27.13 34.81 10.09 198.8 0.0 0.0 38.32
2020-01-21 19:30 34.86 88.8 31.9 26.4 34.86 11.88 175.1 0.0 0.0 38.3
2020-01-21 19:35 34.99 88.5 31.94 27.27 34.99 10.27 188.5 0.0 0.0 38.28
2020-01-21 19:40 34.93 88.0 31.74 26.96 34.93 10.8 188.1 0.0 0.0 38.25
2020-01-21 19:45 34.81 88.6 31.79 24.54 34.81 16.89 183.6 0.0 0.0 38.21
2020-01-21 19:50 34.93 88.7 31.94 26.2 34.93 12.59 201.9 0.0 0.0 38.17
2020-01-21 19:55 34.99 88.8 32.02 26.48 34.99 12.06 206.8 0.0 0.0 38.14
2020-01-21 20:00 35.19 88.1 32.02 27.94 35.19 9.4 207.7 0.0 0.0 38.1
2020-01-21 20:05 35.29 88.0 32.1 28.95 35.29 7.78 194.4 0.0 0.0 38.07
2020-01-21 20:10 35.37 87.9 32.14 28.0 35.37 9.73 185.1 0.0 0.0 38.01
2020-01-21 20:15 35.42 87.9 32.19 27.56 35.42 10.8 208.1 0.0 0.0 37.99
2020-01-21 20:20 35.55 87.6 32.23 27.64 35.55 10.98 184.7 0.0 0.0 37.96
2020-01-21 20:25 35.6 87.6 32.28 29.43 35.6 7.61 186.4 0.0 0.0 37.96
2020-01-21 20:30 35.55 87.2 32.12 28.48 35.55 9.22 194.8 0.0 0.0 37.94
2020-01-21 20:35 35.55 87.3 32.15 29.47 35.55 7.43 196.4 0.0 0.0 37.92
2020-01-21 20:40 35.6 87.1 32.14 28.82 35.6 8.68 164.9 0.0 0.0 37.92
2020-01-21 20:45 35.55 87.6 32.23 29.58 35.55 7.25 201.8 0.0 0.0 37.92
2020-01-21 20:50 35.55 87.9 32.32 27.56 35.55 11.16 193.0 0.0 0.0 37.9
2020-01-21 20:55 35.78 87.4 32.41 28.76 35.78 9.22 212.3 0.0 0.0 37.9
2020-01-21 21:00 35.85 87.3 32.45 26.7 35.85 14.38 199.8 0.0 0.0 37.89
2020-01-21 21:05 35.85 86.8 32.3 29.24 35.85 8.48 205.5 0.0 0.0 37.89
2020-01-21 21:10 35.91 86.9 32.39 26.65 35.91 14.74 180.4 0.0 0.0 37.87
2020-01-21 21:15 35.67 87.2 32.24 28.45 35.67 9.57 191.0 0.0 0.0 37.87
2020-01-21 21:20 35.67 86.4 32.01 28.04 35.67 10.45 180.0 0.0 0.0 37.85
2020-01-21 21:25 35.29 86.9 31.78 27.17 35.29 11.34 191.0 0.0 0.0 37.85
2020-01-21 21:30 35.29 86.6 31.7 26.58 35.29 12.77 200.6 0.0 0.0 37.85
2020-01-21 21:35 35.24 86.9 31.73 26.66 35.24 12.42 173.7 0.0 0.0 37.83
2020-01-21 21:40 35.06 87.1 31.61 26.01 35.06 13.49 159.2 0.0 0.0 37.8
2020-01-21 21:45 34.74 87.6 31.43 26.71 34.74 10.8 209.0 0.0 0.0 37.76
2020-01-21 21:50 34.56 88.0 31.37 26.17 34.56 11.52 169.6 0.0 0.0 37.72
2020-01-21 21:55 34.56 88.0 31.37 26.73 34.56 10.27 193.6 0.0 0.0 37.69
2020-01-21 22:00 34.56 88.4 31.48 25.87 34.56 12.24 209.1 0.0 0.0 37.62
2020-01-21 22:05 34.56 88.4 31.48 25.37 34.56 13.49 192.7 0.0 0.0 37.56
2020-01-21 22:10 34.56 88.2 31.43 26.02 34.56 11.88 182.8 0.0 0.0 37.51
2020-01-21 22:15 34.56 88.3 31.45 23.72 34.56 18.5 180.3 0.0 0.0 37.47
2020-01-21 22:20 34.56 88.1 31.4 27.26 34.56 9.22 184.3 0.0 0.0 37.44
2020-01-21 22:25 34.56 88.1 31.4 25.44 34.56 13.31 191.6 0.0 0.0 37.38
2020-01-21 22:30 34.38 88.0 31.19 25.15 34.38 13.49 229.2 0.0 0.0 37.35
2020-01-21 22:35 34.07 88.9 31.14 25.4 34.07 11.88 201.8 0.0 0.0 37.27
2020-01-21 22:40 34.07 88.7 31.09 25.72 34.07 11.16 182.0 0.0 0.0 37.24
2020-01-21 22:45 34.09 88.7 31.1 26.77 34.09 9.04 202.5 0.0 0.0 37.2
2020-01-21 22:50 33.89 89.0 30.99 26.25 33.89 9.57 196.2 0.0 0.0 37.15
2020-01-21 22:55 33.96 89.2 31.12 26.72 33.96 8.86 185.7 0.0 0.0 37.09
2020-01-21 23:00 33.96 89.4 31.17 26.08 33.96 10.09 186.2 0.0 0.0 37.06
2020-01-21 23:05 33.84 89.8 31.16 27.29 33.84 7.61 168.2 0.0 0.0 37.02
2020-01-21 23:10 33.96 89.9 31.31 27.55 33.96 7.43 198.2 0.0 0.0 36.99
2020-01-21 23:15 33.84 90.5 31.35 26.1 33.84 9.73 185.3 0.0 0.0 36.93
2020-01-21 23:20 33.96 90.7 31.53 28.54 33.96 6.0 168.2 0.0 0.0 36.9
2020-01-21 23:25 34.09 91.1 31.76 29.11 34.09 5.46 153.1 0.0 0.0 36.86
2020-01-21 23:30 34.14 91.1 31.82 28.37 34.14 6.53 148.8 0.0 0.0 36.82
2020-01-21 23:35 34.2 91.3 31.93 29.54 34.2 5.1 168.4 0.0 0.0 36.81
2020-01-21 23:40 34.45 91.4 32.2 29.68 34.45 5.28 193.9 0.0 0.0 36.81
2020-01-21 23:45 34.57 91.1 32.25 28.3 34.57 7.43 185.6 0.0 0.0 36.79
2020-01-21 23:50 34.09 91.0 31.74 29.73 34.09 4.74 208.9 0.0 0.0 36.77
2020-01-21 23:55 34.09 91.6 31.9 27.38 34.09 7.96 212.1 0.0 0.0 36.77
2020-01-22 00:00 34.02 92.1 31.96 27.4 34.02 7.78 185.5 0.0 0.0 36.73
2020-01-22 00:05 34.09 92.1 32.04 28.69 34.09 6.0 181.8 0.0 0.0 36.73
2020-01-22 00:10 34.2 92.1 32.14 28.82 34.2 6.0 184.4 0.0 0.0 36.7
2020-01-22 00:15 34.32 92.0 32.24 27.99 34.32 7.43 171.7 0.0 0.0 36.66
2020-01-22 00:20 34.45 91.7 32.28 29.83 34.45 5.1 165.5 0.0 0.0 36.63
2020-01-22 00:25 34.2 91.6 32.01 31.37 34.2 3.31 148.0 0.0 0.0 36.59
2020-01-22 00:30 34.09 92.0 32.01 30.25 34.09 4.21 118.1 0.0 0.0 36.55
2020-01-22 00:35 34.45 92.1 32.39 34.45 34.45 2.95 101.2 0.0 0.0 36.52
2020-01-22 00:40 34.7 91.4 32.45 28.45 34.7 7.43 172.6 0.0 0.0 36.5
2020-01-22 00:45 34.75 91.1 32.42 31.59 34.75 3.67 166.7 0.0 0.0 36.46
2020-01-22 00:50 35.06 90.9 32.67 32.58 35.06 3.13 183.0 0.0 0.0 36.43
2020-01-22 00:55 35.56 90.5 33.06 30.58 35.56 5.82 213.5 0.0 0.0 36.39
2020-01-22 01:00 35.92 89.4 33.11 33.13 35.92 3.49 226.1 0.0 0.0 36.36
2020-01-22 01:05 35.92 89.0 33.0 30.88 35.92 6.0 204.7 0.0 0.0 36.32
2020-01-22 01:10 36.05 88.5 32.98 30.19 36.05 7.25 228.5 0.0 0.0 36.3
2020-01-22 01:15 36.05 88.3 32.93 31.57 36.05 5.28 236.8 0.0 0.0 36.28
2020-01-22 01:20 35.87 88.9 32.92 28.79 35.87 9.4 228.9 0.0 0.0 36.28
2020-01-22 01:25 35.92 89.1 33.03 30.62 35.92 6.35 191.9 0.0 0.0 36.25
2020-01-22 01:30 35.98 89.1 33.08 32.62 35.98 4.03 233.7 0.0 0.0 36.25
2020-01-22 01:35 36.18 88.7 33.16 32.85 36.18 4.03 176.7 0.0 0.0 36.23
2020-01-22 01:40 36.54 88.5 33.46 33.63 36.54 3.67 176.6 0.0 0.0 36.21
2020-01-22 01:45 36.48 87.4 33.1 33.77 36.48 3.49 207.3 0.0 0.0 36.19
2020-01-22 01:50 36.79 87.7 33.48 33.73 36.79 3.85 226.9 0.0 0.0 36.19
2020-01-22 01:55 37.4 86.2 33.65 32.39 37.4 6.35 247.9 0.0 0.0 36.19
2020-01-22 02:00 38.26 84.4 33.97 31.74 38.26 9.4 227.2 0.0 0.0 36.18
2020-01-22 02:05 38.62 83.0 33.91 31.95 38.62 9.91 245.9 0.0 0.0 36.16
2020-01-22 02:10 38.44 84.3 34.12 30.57 38.44 12.77 234.6 0.0 0.0 36.16
2020-01-22 02:15 38.57 83.9 34.13 30.99 38.57 12.06 252.6 0.0 0.0 36.18
2020-01-22 02:20 38.62 84.0 34.21 32.82 38.62 8.12 252.7 0.0 0.0 36.19
2020-01-22 02:25 38.62 83.8 34.15 31.64 38.62 10.63 252.9 0.0 0.0 36.19
2020-01-22 02:30 38.07 84.6 33.84 32.22 38.07 7.96 250.0 0.0 0.0 36.23
2020-01-22 02:35 37.76 85.6 33.83 34.03 37.76 4.74 259.9 0.0 0.0 36.23
2020-01-22 02:40 37.76 85.0 33.66 33.06 37.76 6.0 264.6 0.0 0.0 36.25
2020-01-22 02:45 37.27 86.7 33.68 31.26 37.27 7.96 243.0 0.0 0.0 36.27
2020-01-22 02:50 37.38 86.8 33.81 31.8 37.38 7.25 255.7 0.0 0.0 36.27
2020-01-22 02:55 36.77 87.5 33.41 31.64 36.77 6.35 283.1 0.0 0.0 36.27
2020-01-22 03:00 36.54 88.6 33.49 31.12 36.54 6.71 273.1 0.0 0.0 36.27
2020-01-22 03:05 36.72 88.1 33.53 31.45 36.72 6.53 302.9 0.0 0.0 36.27
2020-01-22 03:10 37.15 87.3 33.72 29.8 37.15 10.63 262.5 0.0 0.0 36.27
2020-01-22 03:15 37.27 86.5 33.62 30.78 37.27 8.86 274.1 0.0 0.0 36.27
2020-01-22 03:20 37.27 86.7 33.68 30.78 37.27 8.86 250.3 0.0 0.0 36.27
2020-01-22 03:25 37.15 87.1 33.67 30.72 37.15 8.68 248.6 0.0 0.0 36.27
2020-01-22 03:30 37.02 87.4 33.63 30.86 37.02 8.12 248.6 0.0 0.0 36.27
2020-01-22 03:35 36.77 88.4 33.66 31.28 36.77 6.89 232.9 0.0 0.0 36.27
2020-01-22 03:40 37.02 87.9 33.77 31.48 37.02 7.07 226.8 0.0 0.0 36.27
2020-01-22 03:45 37.38 87.5 34.01 32.87 37.38 5.64 235.3 0.0 0.0 36.27
2020-01-22 03:50 37.63 86.8 34.06 32.67 37.63 6.35 199.6 0.0 0.0 36.25
2020-01-22 03:55 37.71 86.3 33.98 32.19 37.71 7.25 230.0 0.0 0.0 36.28
2020-01-22 04:00 37.76 86.2 34.01 32.59 37.76 6.71 247.6 0.0 0.0 36.28
2020-01-22 04:05 37.89 85.5 33.93 33.88 37.89 5.1 227.4 0.0 0.0 36.27
2020-01-22 04:10 37.76 86.0 33.95 33.06 37.76 6.0 254.2 0.0 0.0 36.28
2020-01-22 04:15 37.51 86.2 33.76 33.02 37.51 5.64 246.1 0.0 0.0 36.27
2020-01-22 04:20 37.51 87.2 34.05 32.52 37.51 6.35 227.5 0.0 0.0 36.27
2020-01-22 04:25 37.81 86.4 34.12 33.52 37.81 5.46 245.8 0.0 0.0 36.27
2020-01-22 04:30 37.76 86.3 34.04 34.85 37.76 3.85 234.0 0.0 0.0 36.25
2020-01-22 04:35 37.63 86.9 34.09 34.19 37.63 4.38 236.0 0.0 0.0 36.25
2020-01-22 04:40 37.45 86.5 33.79 33.67 37.45 4.74 268.5 0.0 0.0 36.23
2020-01-22 04:45 37.38 87.1 33.9 34.61 37.38 3.67 260.9 0.0 0.0 36.23
2020-01-22 04:50 37.51 87.2 34.05 34.39 37.51 4.03 261.9 0.0 0.0 36.23
2020-01-22 04:55 37.63 86.6 34.0 33.88 37.63 4.74 250.4 0.0 0.0 36.23
2020-01-22 05:00 37.81 86.4 34.12 34.09 37.81 4.74 245.3 0.0 0.0 36.19
2020-01-22 05:05 37.89 86.7 34.28 33.34 37.89 5.82 265.2 0.0 0.0 36.19
2020-01-22 05:10 37.76 87.1 34.27 33.88 37.76 4.92 250.7 0.0 0.0 36.18
2020-01-22 05:15 37.76 87.3 34.33 33.59 37.76 5.28 259.0 0.0 0.0 36.18
2020-01-22 05:20 37.76 87.6 34.41 33.59 37.76 5.28 249.8 0.0 0.0 36.16
2020-01-22 05:25 37.94 87.2 34.47 33.28 37.94 6.0 265.3 0.0 0.0 36.16
2020-01-22 05:30 38.25 86.5 34.57 34.6 38.25 4.74 257.0 0.0 0.0 36.16
2020-01-22 05:35 38.44 86.4 34.74 34.0 38.44 5.82 265.2 0.0 0.0 36.18
2020-01-22 05:40 38.5 86.2 34.73 34.6 38.5 5.1 257.4 0.0 0.0 36.16
2020-01-22 05:45 38.37 86.4 34.67 35.22 38.37 4.21 279.2 0.0 0.0 36.18
2020-01-22 05:50 38.12 86.7 34.51 34.45 38.12 4.74 293.7 0.0 0.0 36.18
2020-01-22 05:55 37.89 86.7 34.28 34.82 37.89 4.03 307.3 0.0 0.0 36.19
2020-01-22 06:00 37.76 87.8 34.47 34.85 37.76 3.85 276.1 0.0 0.0 36.19
2020-01-22 06:05 37.76 87.3 34.33 34.18 37.76 4.56 281.9 0.0 0.0 36.19
2020-01-22 06:10 37.89 86.8 34.31 33.74 37.89 5.28 267.8 0.0 0.0 36.18
2020-01-22 06:15 37.71 87.8 34.42 33.67 37.71 5.1 266.9 0.0 0.0 36.16
2020-01-22 06:20 37.51 87.7 34.19 33.89 37.51 4.56 309.2 0.0 0.0 36.16
2020-01-22 06:25 37.38 88.2 34.21 34.07 37.38 4.21 308.5 0.0 0.0 36.16
2020-01-22 06:30 37.51 88.7 34.48 33.16 37.51 5.46 304.0 0.0 0.0 36.16
2020-01-22 06:35 37.51 88.6 34.45 32.76 37.51 6.0 282.0 0.0 0.0 36.14
2020-01-22 06:40 37.76 87.6 34.41 33.45 37.76 5.46 283.2 0.0 0.0 36.16
2020-01-22 06:45 37.63 87.1 34.14 33.44 37.63 5.28 278.6 0.0 0.0 36.14
2020-01-22 06:50 37.38 87.9 34.13 33.58 37.38 4.74 280.9 0.0 0.0 36.12
2020-01-22 06:55 37.71 88.0 34.47 33.26 37.71 5.64 296.8 0.0 0.0 36.12
2020-01-22 07:00 37.89 87.9 34.62 32.74 37.89 6.71 264.7 0.0 0.001 36.12
2020-01-22 07:05 38.01 87.4 34.6 33.89 38.01 5.28 281.4 0.0 0.002 36.12
2020-01-22 07:10 38.01 86.9 34.46 33.89 38.01 5.28 287.9 0.0 0.004 36.12
2020-01-22 07:15 38.12 87.0 34.59 33.62 38.12 5.82 288.1 0.0 0.007 36.1
2020-01-22 07:20 38.37 86.9 34.81 34.05 38.37 5.64 297.7 0.0 0.01 36.12
2020-01-22 07:25 38.44 86.0 34.62 34.13 38.44 5.64 288.3 0.0 0.009 36.12
2020-01-22 07:30 37.89 86.6 34.25 35.18 37.89 3.67 313.4 0.0 0.011 36.16
2020-01-22 07:35 37.76 87.9 34.5 34.51 37.76 4.21 285.7 0.0 0.015 36.16
2020-01-22 07:40 37.74 87.3 34.31 34.49 37.74 4.21 288.7 0.0 0.016 36.16
2020-01-22 07:45 38.12 86.7 34.51 34.45 38.12 4.74 287.5 0.0 0.019 36.18
2020-01-22 07:50 38.48 86.3 34.75 33.92 38.48 6.0 279.3 0.0 0.025 36.21
2020-01-22 07:55 39.11 86.2 35.34 35.91 39.11 4.38 288.7 0.0 0.046 36.23
2020-01-22 08:00 39.6 85.8 35.7 37.53 39.6 3.31 284.9 0.0 0.056 36.27
2020-01-22 08:05 40.69 84.5 36.39 38.78 40.69 3.31 264.2 0.0 0.073 36.32
2020-01-22 08:10 41.0 83.2 36.3 41.0 41.0 2.95 268.8 0.0 0.05 36.43
2020-01-22 08:15 40.69 82.7 35.84 38.59 40.69 3.49 252.6 0.0 0.033 36.54
2020-01-22 08:20 40.69 83.4 36.06 40.69 40.69 2.59 274.9 0.0 0.029 36.68
2020-01-22 08:25 40.57 84.4 36.23 40.57 40.57 2.06 294.9 0.0 0.029 36.81
2020-01-22 08:30 40.57 84.9 36.38 40.57 40.57 2.06 289.0 0.0 0.032 36.91
2020-01-22 08:35 40.82 84.8 36.6 40.82 40.82 1.52 274.3 0.0 0.041 37.02
2020-01-22 08:40 40.95 84.7 36.69 40.95 40.95 2.59 275.7 0.0 0.04 37.11
2020-01-22 08:45 41.07 84.7 36.82 41.07 41.07 2.77 249.3 0.0 0.038 37.18
2020-01-22 08:50 41.07 84.0 36.61 41.07 41.07 2.77 260.7 0.0 0.036 37.27
2020-01-22 08:55 41.5 82.9 36.7 41.5 41.5 2.77 244.3 0.0 0.045 37.35
2020-01-22 09:00 41.68 80.6 36.16 41.68 41.68 2.06 237.1 0.0 0.035 37.45
2020-01-22 09:05 41.92 79.89 36.16 41.92 41.92 2.06 243.8 0.0 0.036 37.53
2020-01-22 09:10 42.85 78.9 36.76 40.13 42.85 4.56 239.8 0.0 0.086 37.62
2020-01-22 09:15 43.29 76.27 36.32 41.55 43.29 3.49 248.1 0.0 0.116 37.71
2020-01-22 09:20 43.95 73.36 35.98 41.27 43.95 4.74 298.2 0.0 0.14 37.85
2020-01-22 09:25 44.33 73.98 36.56 42.58 44.33 3.67 295.7 0.0 0.123 38.03
2020-01-22 09:30 44.26 72.7 36.05 42.84 44.26 3.31 263.6 0.0 0.149 38.32
2020-01-22 09:35 45.54 64.5 34.26 44.13 45.54 3.49 301.2 0.0 0.165 38.61
2020-01-22 09:40 45.72 66.2 35.08 42.98 45.72 5.28 310.9 0.0 0.164 38.97
2020-01-22 09:45 45.34 65.79 34.57 42.42 45.34 5.46 310.4 0.0 0.105 39.34
2020-01-22 09:50 45.16 67.97 35.21 42.44 45.16 5.1 293.2 0.0 0.136 39.72
2020-01-22 09:55 45.64 69.03 36.07 43.79 45.64 4.03 303.0 0.0 0.128 40.1
2020-01-22 10:00 46.26 66.29 35.63 43.85 46.26 4.92 282.1 0.0 0.165 40.44
2020-01-22 10:05 46.67 67.34 36.42 44.98 46.67 4.03 286.0 0.0 0.169 40.78
2020-01-22 10:10 47.16 64.27 35.71 44.9 47.16 4.92 297.9 0.0 0.179 41.14
2020-01-22 10:15 48.02 65.56 37.03 45.49 48.02 5.64 300.5 0.0 0.185 41.5
2020-01-22 10:20 47.89 65.67 36.95 45.55 47.89 5.28 331.8 0.0 0.176 41.88
2020-01-22 10:25 47.77 62.49 35.58 45.19 47.77 5.64 319.7 0.0 0.173 42.28
2020-01-22 10:30 48.27 59.31 34.74 45.4 48.27 6.35 325.9 0.0 0.136 42.66
2020-01-22 10:35 48.69 57.74 34.45 47.05 48.69 4.38 310.3 0.0 0.124 43.05
2020-01-22 10:40 48.33 63.0 36.31 46.51 48.33 4.56 333.5 0.0 0.09 43.38
2020-01-22 10:45 48.31 60.57 35.3 45.73 48.31 5.82 322.8 0.0 0.102 43.68
2020-01-22 10:50 48.79 59.4 35.27 47.57 48.79 3.85 306.9 0.0 0.119 43.92
2020-01-22 10:55 49.66 58.0 35.48 48.7 49.66 3.67 312.7 0.0 0.17 44.1
2020-01-22 11:00 49.71 57.97 35.52 48.91 49.71 3.49 346.9 0.0 0.108 44.28
2020-01-22 11:05 50.83 52.84 34.23 50.83 50.83 4.03 302.1 0.0 0.176 44.49
2020-01-22 11:10 51.44 51.61 34.21 51.44 51.44 3.31 313.0 0.0 0.185 44.69
2020-01-22 11:15 52.36 50.35 34.43 52.36 52.36 5.64 8.0 0.0 0.189 44.91
2020-01-22 11:20 52.66 50.28 34.68 52.66 52.66 3.85 341.0 0.0 0.199 45.19
2020-01-22 11:25 53.58 46.66 33.65 53.58 53.58 4.38 4.0 0.0 0.196 45.5
2020-01-22 11:30 52.9 46.9 33.15 52.9 52.9 8.86 335.7 0.0 0.161 45.84
2020-01-22 11:35 53.51 46.46 33.48 53.51 53.51 4.74 324.8 0.0 0.209 46.18
2020-01-22 11:40 53.38 46.73 33.51 53.38 53.38 6.0 29.9 0.0 0.188 46.49
2020-01-22 11:45 53.87 45.97 33.54 53.87 53.87 5.64 328.2 0.0 0.188 46.81
2020-01-22 11:50 54.0 45.56 33.43 54.0 54.0 7.43 317.3 0.0 0.221 47.12
2020-01-22 11:55 54.3 45.39 33.62 54.3 54.3 8.3 348.0 0.0 0.16 47.43
2020-01-22 12:00 54.36 47.47 34.79 54.36 54.36 8.48 0.4 0.0 0.194 47.71
2020-01-22 12:05 54.23 46.11 33.95 54.23 54.23 7.61 353.9 0.0 0.191 47.98
2020-01-22 12:10 54.41 44.5 33.22 54.41 54.41 6.71 351.7 0.0 0.177 48.24
2020-01-22 12:15 53.85 47.84 34.53 53.85 53.85 7.07 353.9 0.0 0.111 48.45
2020-01-22 12:20 53.85 46.72 33.93 53.85 53.85 6.53 335.2 0.0 0.117 48.63
2020-01-22 12:25 53.98 46.92 34.15 53.98 53.98 4.92 329.4 0.0 0.105 48.79
2020-01-22 12:30 53.67 46.51 33.65 53.67 53.67 4.56 328.9 0.0 0.086 48.9
2020-01-22 12:35 53.44 47.95 34.2 53.44 53.44 5.82 313.3 0.0 0.084 48.97
2020-01-22 12:40 54.12 45.66 33.6 54.12 54.12 2.95 338.1 0.0 0.088 49.03
2020-01-22 12:45 54.36 48.6 35.39 54.36 54.36 3.67 342.1 0.0 0.088 49.05
2020-01-22 12:50 55.35 44.74 34.21 55.35 55.35 5.28 353.8 0.0 0.128 49.06
2020-01-22 12:55 55.4 42.83 33.17 55.4 55.4 2.95 336.2 0.0 0.119 49.06
2020-01-22 13:00 55.65 42.87 33.42 55.65 55.65 5.64 350.0 0.0 0.149 49.1
2020-01-22 13:05 56.21 43.89 34.52 56.21 56.21 5.1 341.4 0.0 0.194 49.15
2020-01-22 13:10 56.44 43.41 34.45 56.44 56.44 4.74 1.8 0.0 0.179 49.23
2020-01-22 13:15 56.64 42.49 34.09 56.64 56.64 3.67 305.6 0.0 0.227 49.35
2020-01-22 13:20 56.7 42.28 34.02 56.7 56.7 5.82 7.9 0.0 0.167 49.5
2020-01-22 13:25 56.26 41.46 33.14 56.26 56.26 2.06 3.3 0.0 0.129 49.68
2020-01-22 13:30 56.32 40.95 32.88 56.32 56.32 6.0 30.2 0.0 0.097 49.89
2020-01-22 13:35 55.81 41.43 32.71 55.81 55.81 5.64 27.7 0.0 0.094 50.04
2020-01-22 13:40 55.71 42.08 33.0 55.71 55.71 6.0 11.2 0.0 0.102 50.16
2020-01-22 13:45 56.19 40.54 32.51 56.19 56.19 6.35 30.8 0.0 0.133 50.22
2020-01-22 13:50 55.76 42.52 33.31 55.76 55.76 6.35 49.0 0.0 0.108 50.23
2020-01-22 13:55 55.71 41.36 32.57 55.71 55.71 8.3 33.9 0.0 0.103 50.23
2020-01-22 14:00 55.2 41.29 32.08 55.2 55.2 8.48 53.0 0.0 0.092 50.23
2020-01-22 14:05 54.97 41.12 31.76 54.97 54.97 8.86 39.0 0.0 0.086 50.22
2020-01-22 14:10 54.84 42.65 32.56 54.84 54.84 7.43 45.5 0.0 0.073 50.16
2020-01-22 14:15 54.84 43.37 32.98 54.84 54.84 7.78 47.2 0.0 0.066 50.13
2020-01-22 14:20 54.61 42.76 32.41 54.61 54.61 7.61 53.8 0.0 0.065 50.07
2020-01-22 14:25 54.61 41.13 31.45 54.61 54.61 7.25 78.4 0.0 0.067 50.04
2020-01-22 14:30 54.66 41.64 31.8 54.66 54.66 6.89 65.4 0.0 0.069 49.96
2020-01-22 14:35 54.48 40.72 31.08 54.48 54.48 7.78 84.7 0.0 0.071 49.89
2020-01-22 14:40 54.3 41.67 31.49 54.3 54.3 7.25 47.0 0.0 0.066 49.78
2020-01-22 14:45 54.43 41.91 31.75 54.43 54.43 7.78 41.9 0.0 0.068 49.73
2020-01-22 14:50 54.61 40.24 30.9 54.61 54.61 7.25 79.4 0.0 0.081 49.64
2020-01-22 14:55 54.86 39.97 30.97 54.86 54.86 6.71 64.3 0.0 0.074 49.6
2020-01-22 15:00 54.75 42.19 32.21 54.75 54.75 4.74 58.9 0.0 0.089 49.5
2020-01-22 15:05 54.99 39.87 31.02 54.99 54.99 5.82 62.2 0.0 0.104 49.46
2020-01-22 15:10 54.81 40.35 31.15 54.81 54.81 5.46 43.9 0.0 0.078 49.42
2020-01-22 15:15 54.75 41.95 32.07 54.75 54.75 6.35 63.1 0.0 0.076 49.39
2020-01-22 15:20 55.36 41.37 32.27 55.36 55.36 6.0 56.1 0.0 0.113 49.33
2020-01-22 15:25 55.24 39.67 31.12 55.24 55.24 6.17 59.0 0.0 0.102 49.28
2020-01-22 15:30 55.42 39.6 31.24 55.42 55.42 7.61 68.9 0.0 0.096 49.23
2020-01-22 15:35 55.24 40.31 31.51 55.24 55.24 2.24 54.5 0.0 0.092 49.17
2020-01-22 15:40 55.17 40.38 31.49 55.17 55.17 8.12 76.8 0.0 0.066 49.1

Data is courtesy of the NM Climate Center. DO NOT USE IN LEGAL PROCEEDINGS.